Time;durP1;ratioP1;P1;durP2;ratioP2;P2;SDS_P1;SDS_P2;PMS_P1;PMS_P2;Temp;Humidity;BMP_temperature;BMP_pressure;BME280_temperature;BME280_humidity;BME280_pressure;Samples;Min_cycle;Max_cycle;Signal;HPM_P1;HPM_P2
2023/12/01 00:00:39;;;;;;;24.23;8.68;;;;;;;;;;5104466;28;20047;-73
2023/12/01 00:03:07;;;;;;;23.65;8.30;;;;;;;;;;5106061;28;20452;-74
2023/12/01 00:05:34;;;;;;;28.77;8.88;;;;;;;;;;5107324;28;20054;-73
2023/12/01 00:08:02;;;;;;;24.65;8.77;;;;;;;;;;5104992;28;20051;-72
2023/12/01 00:10:30;;;;;;;23.85;8.77;;;;;;;;;;5104675;28;20044;-74
2023/12/01 00:12:58;;;;;;;26.45;7.88;;;;;;;;;;5088602;28;20057;-73
2023/12/01 00:15:27;;;;;;;23.48;8.23;;;;;;;;;;5106248;28;20047;-74
2023/12/01 00:17:54;;;;;;;20.10;8.10;;;;;;;;;;5108113;28;20048;-72
2023/12/01 00:20:21;;;;;;;23.42;7.88;;;;;;;;;;5107140;28;20122;-73
2023/12/01 00:22:48;;;;;;;23.13;7.40;;;;;;;;;;5103265;28;20066;-73
2023/12/01 00:25:16;;;;;;;18.92;7.43;;;;;;;;;;5103695;28;20066;-73
2023/12/01 00:27:45;;;;;;;22.55;8.18;;;;;;;;;;5090427;28;20075;-73
2023/12/01 00:30:12;;;;;;;19.58;7.85;;;;;;;;;;5106794;28;20051;-73
2023/12/01 00:32:40;;;;;;;18.73;6.72;;;;;;;;;;5108263;28;20039;-74
2023/12/01 00:35:08;;;;;;;20.73;7.10;;;;;;;;;;5086122;28;20541;-73
2023/12/01 00:37:35;;;;;;;15.80;6.60;;;;;;;;;;5109355;28;20054;-73
2023/12/01 00:40:03;;;;;;;21.27;7.95;;;;;;;;;;5107097;28;20048;-73
2023/12/01 00:42:30;;;;;;;22.80;7.88;;;;;;;;;;5106003;28;20421;-73
2023/12/01 00:45:00;;;;;;;24.70;7.85;;;;;;;;;;5106092;28;20056;-74
2023/12/01 00:47:28;;;;;;;25.52;7.70;;;;;;;;;;5091117;28;20055;-73
2023/12/01 00:49:55;;;;;;;24.33;8.18;;;;;;;;;;5102070;28;20047;-73
2023/12/01 00:52:22;;;;;;;22.77;7.82;;;;;;;;;;5105278;28;20051;-73
2023/12/01 00:54:49;;;;;;;23.80;8.80;;;;;;;;;;5106295;28;20058;-73
2023/12/01 00:57:17;;;;;;;23.75;8.32;;;;;;;;;;5104845;28;20544;-73
2023/12/01 00:59:44;;;;;;;25.55;7.65;;;;;;;;;;5105412;28;20051;-73
2023/12/01 01:02:13;;;;;;;21.52;7.93;;;;;;;;;;5105892;28;20047;-73
2023/12/01 01:04:41;;;;;;;28.05;9.15;;;;;;;;;;5085307;28;20059;-73
2023/12/01 01:07:08;;;;;;;24.17;7.97;;;;;;;;;;5107361;28;20059;-72
2023/12/01 01:09:36;;;;;;;25.33;8.50;;;;;;;;;;5104111;28;20507;-73
2023/12/01 01:12:03;;;;;;;24.50;8.15;;;;;;;;;;5101869;28;20051;-73
2023/12/01 01:14:30;;;;;;;23.65;7.75;;;;;;;;;;5105916;28;20391;-73
2023/12/01 01:16:58;;;;;;;23.20;8.07;;;;;;;;;;5092196;28;20462;-72
2023/12/01 01:19:26;;;;;;;30.17;8.10;;;;;;;;;;5100071;28;20075;-73
2023/12/01 01:21:53;;;;;;;24.58;7.72;;;;;;;;;;5089834;28;20048;-73
2023/12/01 01:24:21;;;;;;;22.00;7.35;;;;;;;;;;5099649;28;20486;-73
2023/12/01 01:26:49;;;;;;;31.27;9.15;;;;;;;;;;5082540;28;20056;-73
2023/12/01 01:29:16;;;;;;;29.13;8.82;;;;;;;;;;5076084;28;20047;-71
2023/12/01 01:31:43;;;;;;;23.75;8.05;;;;;;;;;;5104595;28;20051;-73
2023/12/01 01:34:10;;;;;;;25.35;8.20;;;;;;;;;;5103668;28;20043;-73
2023/12/01 01:36:39;;;;;;;27.77;8.55;;;;;;;;;;5102245;28;20369;-73
2023/12/01 01:39:06;;;;;;;22.25;8.25;;;;;;;;;;5105375;28;20054;-73
2023/12/01 01:41:33;;;;;;;26.33;8.57;;;;;;;;;;5101818;28;20503;-73
2023/12/01 01:44:01;;;;;;;30.63;8.55;;;;;;;;;;5103680;28;20056;-73
2023/12/01 01:46:28;;;;;;;28.95;8.95;;;;;;;;;;5099120;28;20513;-73
2023/12/01 01:48:56;;;;;;;29.50;9.20;;;;;;;;;;5078986;28;20479;-73
2023/12/01 01:51:23;;;;;;;20.95;8.48;;;;;;;;;;5100422;28;20505;-73
2023/12/01 01:53:52;;;;;;;26.08;9.15;;;;;;;;;;5081725;28;20058;-73
2023/12/01 01:56:19;;;;;;;28.40;8.98;;;;;;;;;;5104766;28;20044;-73
2023/12/01 01:58:47;;;;;;;24.88;8.75;;;;;;;;;;5108081;28;20487;-73
2023/12/01 02:01:14;;;;;;;26.48;7.97;;;;;;;;;;5093751;28;20425;-73
2023/12/01 02:03:42;;;;;;;26.52;8.30;;;;;;;;;;5104811;28;20043;-73
2023/12/01 02:06:09;;;;;;;25.58;8.63;;;;;;;;;;5101531;28;20120;-73
2023/12/01 02:08:36;;;;;;;23.92;7.82;;;;;;;;;;5105065;28;20040;-73
2023/12/01 02:11:05;;;;;;;28.15;8.73;;;;;;;;;;5103724;28;20054;-73
2023/12/01 02:13:33;;;;;;;28.40;8.60;;;;;;;;;;5105269;28;20732;-73
2023/12/01 02:16:01;;;;;;;25.02;8.73;;;;;;;;;;5107667;28;20048;-73
2023/12/01 02:18:29;;;;;;;29.90;10.00;;;;;;;;;;5108005;28;20044;-73
2023/12/01 02:20:57;;;;;;;32.97;9.75;;;;;;;;;;5104944;28;20400;-72
2023/12/01 02:23:26;;;;;;;29.05;9.18;;;;;;;;;;5106327;28;20454;-73
2023/12/01 02:25:53;;;;;;;40.65;9.60;;;;;;;;;;5104923;28;20173;-73
2023/12/01 02:28:21;;;;;;;30.35;9.52;;;;;;;;;;5107365;28;20051;-72
2023/12/01 02:30:50;;;;;;;34.80;9.55;;;;;;;;;;5106996;28;20072;-73
2023/12/01 02:33:17;;;;;;;25.10;8.50;;;;;;;;;;5104431;28;20040;-73
2023/12/01 02:35:47;;;;;;;27.42;8.90;;;;;;;;;;5098751;28;20040;-73
2023/12/01 02:38:15;;;;;;;36.05;9.23;;;;;;;;;;5106031;28;20475;-73
2023/12/01 02:40:43;;;;;;;28.98;8.88;;;;;;;;;;5098791;28;20048;-73
2023/12/01 02:43:11;;;;;;;28.85;8.98;;;;;;;;;;5106799;28;20052;-72
2023/12/01 02:45:38;;;;;;;33.50;9.88;;;;;;;;;;5087718;28;20333;-72
2023/12/01 02:48:05;;;;;;;25.67;9.02;;;;;;;;;;5106132;28;20047;-73
2023/12/01 02:50:33;;;;;;;27.65;9.25;;;;;;;;;;5104647;28;20048;-72
2023/12/01 02:53:00;;;;;;;30.77;9.80;;;;;;;;;;5102224;28;20072;-73
2023/12/01 02:55:28;;;;;;;25.38;8.95;;;;;;;;;;5100608;28;20054;-73
2023/12/01 02:57:56;;;;;;;28.50;9.02;;;;;;;;;;5099113;28;20048;-72
2023/12/01 03:00:23;;;;;;;35.65;10.05;;;;;;;;;;5105270;28;20048;-73
2023/12/01 03:02:51;;;;;;;27.60;9.38;;;;;;;;;;5095357;28;20063;-70
2023/12/01 03:05:19;;;;;;;30.67;9.40;;;;;;;;;;5105991;28;20575;-72
2023/12/01 03:07:46;;;;;;;33.95;9.63;;;;;;;;;;5103532;28;20056;-72
2023/12/01 03:10:14;;;;;;;31.55;8.90;;;;;;;;;;5103002;28;20401;-72
2023/12/01 03:12:42;;;;;;;30.30;9.23;;;;;;;;;;5101149;28;20067;-72
2023/12/01 03:15:12;;;;;;;28.17;8.27;;;;;;;;;;5103945;28;20487;-71
2023/12/01 03:17:39;;;;;;;30.60;9.00;;;;;;;;;;5102493;28;20079;-72
2023/12/01 03:20:09;;;;;;;26.65;9.13;;;;;;;;;;5109748;28;20054;-72
2023/12/01 03:22:37;;;;;;;30.17;9.38;;;;;;;;;;5105206;28;20058;-72
2023/12/01 03:25:09;;;;;;;33.33;9.40;;;;;;;;;;5105930;28;20054;-72
2023/12/01 03:27:37;;;;;;;31.95;9.60;;;;;;;;;;5106565;28;20083;-72
2023/12/01 03:30:05;;;;;;;34.45;10.23;;;;;;;;;;5109597;28;20044;-72
2023/12/01 03:32:40;;;;;;;31.23;9.40;;;;;;;;;;5108486;28;20056;-72
2023/12/01 03:35:07;;;;;;;29.13;9.77;;;;;;;;;;5110354;28;20474;-70
2023/12/01 03:37:34;;;;;;;30.95;9.32;;;;;;;;;;5106882;28;20040;-72
2023/12/01 03:40:03;;;;;;;29.38;9.60;;;;;;;;;;5106038;28;20055;-71
2023/12/01 03:42:30;;;;;;;32.33;9.65;;;;;;;;;;5109973;28;20490;-72
2023/12/01 03:44:57;;;;;;;35.05;10.23;;;;;;;;;;5108204;28;20059;-72
2023/12/01 03:47:25;;;;;;;35.90;10.48;;;;;;;;;;5109026;28;20143;-72
2023/12/01 03:49:53;;;;;;;31.52;9.65;;;;;;;;;;5106617;28;20054;-71
2023/12/01 03:52:23;;;;;;;31.95;9.52;;;;;;;;;;5108116;28;20148;-71
2023/12/01 03:54:50;;;;;;;36.03;9.10;;;;;;;;;;5108615;28;20054;-72
2023/12/01 03:57:18;;;;;;;38.63;9.75;;;;;;;;;;5108857;28;20463;-72
2023/12/01 03:59:45;;;;;;;35.55;10.00;;;;;;;;;;5106210;28;20047;-72
2023/12/01 04:02:12;;;;;;;33.85;9.88;;;;;;;;;;5101519;28;20123;-72
2023/12/01 04:04:39;;;;;;;35.03;10.27;;;;;;;;;;5104694;28;20054;-72
2023/12/01 04:07:08;;;;;;;34.25;10.10;;;;;;;;;;5110180;28;20044;-71
2023/12/01 04:09:35;;;;;;;33.67;9.55;;;;;;;;;;5104788;28;20055;-72
2023/12/01 04:12:03;;;;;;;35.72;10.68;;;;;;;;;;5100110;28;20067;-72
2023/12/01 04:14:30;;;;;;;33.53;10.32;;;;;;;;;;5106392;28;20056;-72
2023/12/01 04:16:57;;;;;;;34.47;10.35;;;;;;;;;;5087728;28;20055;-72
2023/12/01 04:19:25;;;;;;;31.58;9.48;;;;;;;;;;5101079;28;20043;-71
2023/12/01 04:21:52;;;;;;;31.08;9.57;;;;;;;;;;5104273;28;20058;-72
2023/12/01 04:24:22;;;;;;;39.08;10.93;;;;;;;;;;5103920;28;20048;-72
2023/12/01 04:26:50;;;;;;;29.63;9.18;;;;;;;;;;5106318;28;20130;-72
2023/12/01 04:29:17;;;;;;;35.70;10.40;;;;;;;;;;5106505;28;20055;-72
2023/12/01 04:31:44;;;;;;;31.73;10.20;;;;;;;;;;5090318;28;20048;-72
2023/12/01 04:34:12;;;;;;;30.48;9.95;;;;;;;;;;5106622;28;20493;-71
2023/12/01 04:36:39;;;;;;;36.85;9.93;;;;;;;;;;5090742;28;20051;-72
2023/12/01 04:39:07;;;;;;;34.53;10.57;;;;;;;;;;5109248;28;20058;-71
2023/12/01 04:41:36;;;;;;;33.75;9.93;;;;;;;;;;5103540;28;20059;-70
2023/12/01 04:44:03;;;;;;;29.80;9.85;;;;;;;;;;5105819;28;20483;-71
2023/12/01 04:46:30;;;;;;;30.67;8.98;;;;;;;;;;5107341;28;20040;-70
2023/12/01 04:48:57;;;;;;;34.45;9.73;;;;;;;;;;5105935;28;20071;-71
2023/12/01 04:51:25;;;;;;;25.58;9.00;;;;;;;;;;5109891;28;20056;-71
2023/12/01 04:53:52;;;;;;;30.70;8.95;;;;;;;;;;5108340;28;20055;-71
2023/12/01 04:56:19;;;;;;;41.35;10.43;;;;;;;;;;5089090;28;20426;-70
2023/12/01 04:58:48;;;;;;;32.85;9.98;;;;;;;;;;5107164;28;20074;-71
2023/12/01 05:01:15;;;;;;;29.58;9.35;;;;;;;;;;5104580;28;20050;-71
2023/12/01 05:03:43;;;;;;;27.77;9.52;;;;;;;;;;5104380;28;20052;-71
2023/12/01 05:06:10;;;;;;;27.45;8.98;;;;;;;;;;5087569;28;20047;-71
2023/12/01 05:08:37;;;;;;;30.98;9.57;;;;;;;;;;5107203;28;20047;-71
2023/12/01 05:11:04;;;;;;;27.13;9.27;;;;;;;;;;5103863;28;20047;-71
2023/12/01 05:13:32;;;;;;;29.95;9.25;;;;;;;;;;5107038;28;20051;-72
2023/12/01 05:16:00;;;;;;;27.25;9.43;;;;;;;;;;5105379;28;20109;-72
2023/12/01 05:18:28;;;;;;;29.58;10.30;;;;;;;;;;5104542;28;20047;-71
2023/12/01 05:20:55;;;;;;;33.75;10.15;;;;;;;;;;5102947;28;20044;-71
2023/12/01 05:23:22;;;;;;;30.00;9.80;;;;;;;;;;5106193;28;20047;-71
2023/12/01 05:25:50;;;;;;;25.67;8.95;;;;;;;;;;5100002;28;20052;-72
2023/12/01 05:28:17;;;;;;;27.40;9.05;;;;;;;;;;5104232;28;20046;-71
2023/12/01 05:30:46;;;;;;;30.25;10.48;;;;;;;;;;5100968;28;20561;-71
2023/12/01 05:33:15;;;;;;;27.75;9.15;;;;;;;;;;5106569;28;20051;-71
2023/12/01 05:35:43;;;;;;;28.85;9.40;;;;;;;;;;5105628;28;20131;-71
2023/12/01 05:38:10;;;;;;;34.55;11.13;;;;;;;;;;5107510;28;20043;-71
2023/12/01 05:40:38;;;;;;;30.25;9.75;;;;;;;;;;5107072;28;20048;-72
2023/12/01 05:43:06;;;;;;;29.30;9.38;;;;;;;;;;5105643;28;20051;-72
2023/12/01 05:45:35;;;;;;;32.10;9.73;;;;;;;;;;5082080;28;20052;-72
2023/12/01 05:48:03;;;;;;;30.45;9.55;;;;;;;;;;5107815;28;20043;-71
2023/12/01 05:50:32;;;;;;;33.05;10.32;;;;;;;;;;5106193;28;20048;-72
2023/12/01 05:53:00;;;;;;;30.20;9.85;;;;;;;;;;5098952;28;20043;-71
2023/12/01 05:55:29;;;;;;;30.52;9.52;;;;;;;;;;5103924;28;20048;-71
2023/12/01 05:57:57;;;;;;;24.17;8.35;;;;;;;;;;5099390;28;20048;-71
2023/12/01 06:00:29;;;;;;;24.65;8.45;;;;;;;;;;5098364;28;20100;-72
2023/12/01 06:02:57;;;;;;;27.63;9.05;;;;;;;;;;5087733;28;20126;-71
2023/12/01 06:05:24;;;;;;;30.73;9.55;;;;;;;;;;5104916;28;20132;-71
2023/12/01 06:07:54;;;;;;;27.98;8.77;;;;;;;;;;5107980;28;20043;-71
2023/12/01 06:10:22;;;;;;;30.38;9.50;;;;;;;;;;5104977;28;20035;-71
2023/12/01 06:12:49;;;;;;;32.42;9.27;;;;;;;;;;5084300;28;20055;-72
2023/12/01 06:15:17;;;;;;;34.88;9.73;;;;;;;;;;5101989;28;20043;-71
2023/12/01 06:17:46;;;;;;;31.58;9.25;;;;;;;;;;5102634;28;20238;-71
2023/12/01 06:20:18;;;;;;;25.60;8.60;;;;;;;;;;5105815;28;20475;-70
2023/12/01 06:22:48;;;;;;;33.50;10.90;;;;;;;;;;5105022;28;20437;-71
2023/12/01 06:25:17;;;;;;;33.17;9.85;;;;;;;;;;5097904;28;20043;-71
2023/12/01 06:27:45;;;;;;;32.13;9.32;;;;;;;;;;5107088;27;20043;-71
2023/12/01 06:30:13;;;;;;;28.88;9.10;;;;;;;;;;5090172;28;20406;-71
2023/12/01 06:32:41;;;;;;;27.52;9.15;;;;;;;;;;5105735;28;20055;-71
2023/12/01 06:35:10;;;;;;;31.42;8.88;;;;;;;;;;5089610;28;20052;-70
2023/12/01 06:37:38;;;;;;;25.85;8.55;;;;;;;;;;5103037;28;20040;-71
2023/12/01 06:40:11;;;;;;;31.17;9.80;;;;;;;;;;5107423;28;20051;-71
2023/12/01 06:42:41;;;;;;;29.38;9.15;;;;;;;;;;5101978;28;20096;-71
2023/12/01 06:45:10;;;;;;;28.35;9.38;;;;;;;;;;5088089;28;20074;-71
2023/12/01 06:47:37;;;;;;;33.72;8.57;;;;;;;;;;5084008;28;20054;-71
2023/12/01 06:50:05;;;;;;;28.02;8.68;;;;;;;;;;5101159;28;20056;-71
2023/12/01 06:52:33;;;;;;;27.25;9.25;;;;;;;;;;5106415;28;20998;-71
2023/12/01 06:55:00;;;;;;;27.13;8.50;;;;;;;;;;5101594;28;20051;-71
2023/12/01 06:57:27;;;;;;;22.63;7.88;;;;;;;;;;5104520;28;20066;-71
2023/12/01 06:59:56;;;;;;;24.13;8.45;;;;;;;;;;5088854;28;20039;-71
2023/12/01 07:02:24;;;;;;;25.95;9.05;;;;;;;;;;5106283;28;20086;-71
2023/12/01 07:04:55;;;;;;;30.85;9.45;;;;;;;;;;5106016;28;20044;-70
2023/12/01 07:07:23;;;;;;;26.88;8.15;;;;;;;;;;5099916;28;20398;-70
2023/12/01 07:09:50;;;;;;;31.15;9.90;;;;;;;;;;5105664;28;20058;-71
2023/12/01 07:12:17;;;;;;;27.10;8.27;;;;;;;;;;5098971;28;20059;-71
2023/12/01 07:14:46;;;;;;;26.08;7.90;;;;;;;;;;5079962;28;20130;-70
2023/12/01 07:17:14;;;;;;;25.77;8.70;;;;;;;;;;5100409;28;20448;-69
2023/12/01 07:19:42;;;;;;;25.80;8.07;;;;;;;;;;5088167;28;20039;-71
2023/12/01 07:22:10;;;;;;;27.13;7.72;;;;;;;;;;5105175;28;20085;-71
2023/12/01 07:24:38;;;;;;;34.20;7.43;;;;;;;;;;5098629;28;20055;-71
2023/12/01 07:27:05;;;;;;;26.05;7.57;;;;;;;;;;5089798;28;20058;-71
2023/12/01 07:29:35;;;;;;;25.70;7.40;;;;;;;;;;5086369;28;20052;-71
2023/12/01 07:32:03;;;;;;;22.42;7.68;;;;;;;;;;5103293;28;20496;-70
2023/12/01 07:34:31;;;;;;;35.47;7.88;;;;;;;;;;5103392;28;20055;-71
2023/12/01 07:36:59;;;;;;;47.80;8.73;;;;;;;;;;5084464;28;20055;-70
2023/12/01 07:39:26;;;;;;;38.92;8.95;;;;;;;;;;5102956;28;20047;-70
2023/12/01 07:41:53;;;;;;;35.80;8.88;;;;;;;;;;5086409;28;20052;-69
2023/12/01 07:44:20;;;;;;;28.70;7.88;;;;;;;;;;5101140;28;20044;-71
2023/12/01 07:46:47;;;;;;;33.40;7.68;;;;;;;;;;5106034;28;20085;-71
2023/12/01 07:49:15;;;;;;;30.27;7.60;;;;;;;;;;5100340;28;20046;-70
2023/12/01 07:51:43;;;;;;;28.35;7.45;;;;;;;;;;5103728;28;20044;-70
2023/12/01 07:54:11;;;;;;;29.63;8.35;;;;;;;;;;5082893;28;20052;-71
2023/12/01 07:56:38;;;;;;;25.17;6.68;;;;;;;;;;5098059;28;20054;-71
2023/12/01 07:59:06;;;;;;;28.10;8.15;;;;;;;;;;5106240;28;20467;-70
2023/12/01 08:01:33;;;;;;;36.30;7.82;;;;;;;;;;5105159;28;20514;-70
2023/12/01 08:04:00;;;;;;;21.05;6.43;;;;;;;;;;5088750;28;20052;-70
2023/12/01 08:06:29;;;;;;;18.70;6.43;;;;;;;;;;5107492;28;20051;-71
2023/12/01 08:08:58;;;;;;;20.35;6.60;;;;;;;;;;5106594;28;20079;-71
2023/12/01 08:11:27;;;;;;;19.17;5.50;;;;;;;;;;5107091;28;20052;-70
2023/12/01 08:13:54;;;;;;;25.98;6.70;;;;;;;;;;5106384;28;20101;-70
2023/12/01 08:16:21;;;;;;;28.83;6.82;;;;;;;;;;5107128;28;20036;-70
2023/12/01 08:18:49;;;;;;;21.83;7.13;;;;;;;;;;5108560;28;20104;-70
2023/12/01 08:21:16;;;;;;;36.65;8.05;;;;;;;;;;5089017;28;20052;-70
2023/12/01 08:23:43;;;;;;;23.95;6.80;;;;;;;;;;5104486;28;20048;-70
2023/12/01 08:26:12;;;;;;;27.58;8.00;;;;;;;;;;5106358;28;20108;-70
2023/12/01 08:28:39;;;;;;;28.25;7.85;;;;;;;;;;5103306;28;20054;-70
2023/12/01 08:31:07;;;;;;;32.45;8.15;;;;;;;;;;5107348;28;20055;-70
2023/12/01 08:33:35;;;;;;;29.45;8.27;;;;;;;;;;5097117;28;20139;-70
2023/12/01 08:36:02;;;;;;;41.97;9.27;;;;;;;;;;5106060;28;20059;-71
2023/12/01 08:38:30;;;;;;;52.45;9.80;;;;;;;;;;5089182;28;20055;-71
2023/12/01 08:40:57;;;;;;;44.00;9.68;;;;;;;;;;5087300;28;20052;-71
2023/12/01 08:43:25;;;;;;;44.13;8.52;;;;;;;;;;5104228;28;20079;-70
2023/12/01 08:45:53;;;;;;;38.10;7.97;;;;;;;;;;5102518;28;20060;-70
2023/12/01 08:48:20;;;;;;;37.78;7.35;;;;;;;;;;5103695;28;20039;-71
2023/12/01 08:50:47;;;;;;;25.58;7.72;;;;;;;;;;5109287;28;20067;-70
2023/12/01 08:53:15;;;;;;;21.13;6.70;;;;;;;;;;5110036;28;20438;-70
2023/12/01 08:55:42;;;;;;;22.02;7.13;;;;;;;;;;5102941;28;20394;-71
2023/12/01 08:58:09;;;;;;;20.27;7.00;;;;;;;;;;5108894;28;20064;-70
2023/12/01 09:00:38;;;;;;;21.88;6.85;;;;;;;;;;5103147;28;20039;-70
2023/12/01 09:03:05;;;;;;;20.52;7.07;;;;;;;;;;5110149;28;20521;-71
2023/12/01 09:05:33;;;;;;;28.10;8.27;;;;;;;;;;5108165;28;20048;-70
2023/12/01 09:08:01;;;;;;;27.95;9.07;;;;;;;;;;5109663;28;20047;-70
2023/12/01 09:10:30;;;;;;;32.95;8.98;;;;;;;;;;5105363;28;20050;-71
2023/12/01 09:12:57;;;;;;;38.63;9.82;;;;;;;;;;5103488;28;20105;-70
2023/12/01 09:15:24;;;;;;;37.45;10.20;;;;;;;;;;5102036;28;20056;-70
2023/12/01 09:17:53;;;;;;;37.38;10.25;;;;;;;;;;5088926;28;20567;-71
2023/12/01 09:20:21;;;;;;;33.13;9.35;;;;;;;;;;5098504;28;20036;-71
2023/12/01 09:22:48;;;;;;;40.25;11.48;;;;;;;;;;5101201;28;20069;-70
2023/12/01 09:25:16;;;;;;;35.17;10.40;;;;;;;;;;5105673;28;20047;-71
2023/12/01 09:27:43;;;;;;;36.97;10.18;;;;;;;;;;5105752;28;20051;-71
2023/12/01 09:30:13;;;;;;;28.70;10.52;;;;;;;;;;5097569;28;20521;-71
2023/12/01 09:32:41;;;;;;;38.17;11.95;;;;;;;;;;5105987;28;20083;-71
2023/12/01 09:35:10;;;;;;;31.20;10.60;;;;;;;;;;5101699;28;20043;-70
2023/12/01 09:37:37;;;;;;;32.08;10.27;;;;;;;;;;5082824;28;20061;-70
2023/12/01 09:40:06;;;;;;;32.03;9.73;;;;;;;;;;5102331;28;20044;-71
2023/12/01 09:42:34;;;;;;;23.58;8.77;;;;;;;;;;5107121;28;20043;-71
2023/12/01 09:45:02;;;;;;;28.65;9.73;;;;;;;;;;5101516;28;20044;-71
2023/12/01 09:47:30;;;;;;;26.40;8.85;;;;;;;;;;5106772;28;20044;-71
2023/12/01 09:49:58;;;;;;;27.75;9.00;;;;;;;;;;5088616;28;20055;-71
2023/12/01 09:52:26;;;;;;;32.28;8.95;;;;;;;;;;5103325;28;20048;-70
2023/12/01 09:54:54;;;;;;;24.55;8.65;;;;;;;;;;5103278;28;20052;-71
2023/12/01 09:57:21;;;;;;;27.65;8.73;;;;;;;;;;5097893;28;20039;-71
2023/12/01 09:59:49;;;;;;;25.35;8.68;;;;;;;;;;5106054;28;20051;-71
2023/12/01 10:02:16;;;;;;;22.38;7.80;;;;;;;;;;5105910;28;20059;-70
2023/12/01 10:04:46;;;;;;;23.95;7.90;;;;;;;;;;5107537;28;20134;-71
2023/12/01 10:07:13;;;;;;;17.83;7.20;;;;;;;;;;5088410;28;20051;-70
2023/12/01 10:09:42;;;;;;;18.00;7.07;;;;;;;;;;5103572;28;20047;-71
2023/12/01 10:12:10;;;;;;;18.50;7.25;;;;;;;;;;5080416;28;20055;-71
2023/12/01 10:14:37;;;;;;;19.92;7.28;;;;;;;;;;5099206;28;20371;-71
2023/12/01 10:17:05;;;;;;;21.90;7.47;;;;;;;;;;5106444;28;20051;-71
2023/12/01 10:19:33;;;;;;;19.42;7.60;;;;;;;;;;5105127;28;20055;-71
2023/12/01 10:22:00;;;;;;;24.20;7.97;;;;;;;;;;5108022;28;20108;-71
2023/12/01 10:24:28;;;;;;;21.38;8.25;;;;;;;;;;5105461;27;20376;-71
2023/12/01 10:27:01;;;;;;;18.77;8.05;;;;;;;;;;5100134;28;20052;-72
2023/12/01 10:29:30;;;;;;;21.02;8.38;;;;;;;;;;5101346;28;20525;-72
2023/12/01 10:32:02;;;;;;;23.63;7.75;;;;;;;;;;5099618;28;20040;-72
2023/12/01 10:34:29;;;;;;;18.60;7.47;;;;;;;;;;5080438;28;20058;-72
2023/12/01 10:36:57;;;;;;;18.80;7.43;;;;;;;;;;5102081;28;20048;-72
2023/12/01 10:39:25;;;;;;;21.15;7.70;;;;;;;;;;5100220;28;20046;-72
2023/12/01 10:41:54;;;;;;;23.20;8.88;;;;;;;;;;5108365;28;20507;-72
2023/12/01 10:44:24;;;;;;;18.15;7.82;;;;;;;;;;5104586;28;20055;-72
2023/12/01 10:46:52;;;;;;;19.00;8.07;;;;;;;;;;5098118;28;20112;-71
2023/12/01 10:49:19;;;;;;;23.15;8.23;;;;;;;;;;5103025;28;20043;-73
2023/12/01 10:51:50;;;;;;;17.70;8.00;;;;;;;;;;5101182;28;20055;-72
2023/12/01 10:54:18;;;;;;;20.77;8.43;;;;;;;;;;5107455;28;20055;-73
2023/12/01 10:56:50;;;;;;;22.05;8.07;;;;;;;;;;5102665;28;20050;-73
2023/12/01 10:59:19;;;;;;;20.08;8.43;;;;;;;;;;5099766;28;20043;-73
2023/12/01 11:01:49;;;;;;;18.60;8.50;;;;;;;;;;5098409;28;20055;-72
2023/12/01 11:04:23;;;;;;;21.45;8.63;;;;;;;;;;5108383;28;20064;-73
2023/12/01 11:06:50;;;;;;;;;;;;;;;;;;5105068;28;20063;-73
2023/12/01 11:09:24;;;;;;;20.70;7.55;;;;;;;;;;5106266;28;19982;-73
2023/12/01 11:11:55;;;;;;;18.80;7.28;;;;;;;;;;5086277;28;20043;-73
2023/12/01 11:14:24;;;;;;;18.90;7.18;;;;;;;;;;5106817;28;20071;-73
2023/12/01 11:16:53;;;;;;;17.60;7.20;;;;;;;;;;5098159;28;20054;-73
2023/12/01 11:19:20;;;;;;;21.73;8.07;;;;;;;;;;5102317;28;20394;-71
2023/12/01 11:21:51;;;;;;;20.73;8.52;;;;;;;;;;5099650;28;20048;-73
2023/12/01 11:24:25;;;;;;;17.40;7.65;;;;;;;;;;5104757;28;20406;-73
2023/12/01 11:26:53;;;;;;;18.63;7.07;;;;;;;;;;5100105;28;20048;-73
2023/12/01 11:29:28;;;;;;;18.42;7.65;;;;;;;;;;5103609;28;20105;-73
2023/12/01 11:31:58;;;;;;;18.17;7.57;;;;;;;;;;5108420;28;20380;-71
2023/12/01 11:34:26;;;;;;;17.45;7.35;;;;;;;;;;5103570;28;20043;-73
2023/12/01 11:36:54;;;;;;;19.50;7.40;;;;;;;;;;5105127;28;20099;-73
2023/12/01 11:39:23;;;;;;;20.42;7.85;;;;;;;;;;5088066;28;20109;-72
2023/12/01 11:41:51;;;;;;;18.70;7.38;;;;;;;;;;5110223;28;20126;-72
2023/12/01 11:44:23;;;;;;;18.17;7.38;;;;;;;;;;5106972;28;20122;-73
2023/12/01 11:46:55;;;;;;;22.95;8.40;;;;;;;;;;5105569;28;20453;-72
2023/12/01 11:49:25;;;;;;;21.20;7.10;;;;;;;;;;5107789;28;20131;-72
2023/12/01 11:51:53;;;;;;;21.90;8.52;;;;;;;;;;5102204;28;20047;-73
2023/12/01 11:54:21;;;;;;;22.25;8.35;;;;;;;;;;5105245;28;20486;-72
2023/12/01 11:56:49;;;;;;;19.10;7.57;;;;;;;;;;5107746;28;20071;-72
2023/12/01 11:59:17;;;;;;;24.20;8.82;;;;;;;;;;5107201;28;20078;-72
2023/12/01 12:01:44;;;;;;;21.65;8.20;;;;;;;;;;5109850;28;20058;-73
2023/12/01 12:04:13;;;;;;;18.77;7.78;;;;;;;;;;5107268;28;20146;-72
2023/12/01 12:06:42;;;;;;;24.08;8.55;;;;;;;;;;5108526;28;20901;-71
2023/12/01 12:09:10;;;;;;;19.20;8.30;;;;;;;;;;5100107;28;20052;-73
2023/12/01 12:11:39;;;;;;;23.25;8.48;;;;;;;;;;5099936;28;20044;-72
2023/12/01 12:14:06;;;;;;;21.85;8.63;;;;;;;;;;5104310;28;20547;-73
2023/12/01 12:16:34;;;;;;;24.85;8.32;;;;;;;;;;5104029;28;20459;-71
2023/12/01 12:19:01;;;;;;;21.17;8.20;;;;;;;;;;5090520;28;20059;-72
2023/12/01 12:21:29;;;;;;;24.83;8.88;;;;;;;;;;5105270;28;20071;-72
2023/12/01 12:23:57;;;;;;;20.05;8.23;;;;;;;;;;5105073;28;20078;-72
2023/12/01 12:26:25;;;;;;;25.23;9.18;;;;;;;;;;5106352;28;21246;-73
2023/12/01 12:28:53;;;;;;;22.98;8.55;;;;;;;;;;5108193;28;20043;-73
2023/12/01 12:31:23;;;;;;;22.20;8.10;;;;;;;;;;5105831;28;20059;-73
2023/12/01 12:33:50;;;;;;;23.15;9.02;;;;;;;;;;5105981;28;20051;-73
2023/12/01 12:36:18;;;;;;;23.77;8.27;;;;;;;;;;5109305;28;20047;-73
2023/12/01 12:38:48;;;;;;;24.42;9.00;;;;;;;;;;5087213;28;20150;-70
2023/12/01 12:41:23;;;;;;;25.90;8.93;;;;;;;;;;5101997;28;20116;-72
2023/12/01 12:43:51;;;;;;;27.17;9.00;;;;;;;;;;5106484;28;20091;-73
2023/12/01 12:46:19;;;;;;;26.63;8.77;;;;;;;;;;5101679;28;20055;-73
2023/12/01 12:48:46;;;;;;;25.17;8.85;;;;;;;;;;5103127;28;20052;-77
2023/12/01 12:51:15;;;;;;;23.88;8.82;;;;;;;;;;5104724;28;20048;-76
2023/12/01 12:53:42;;;;;;;23.92;9.23;;;;;;;;;;5097938;28;20109;-74
2023/12/01 12:56:12;;;;;;;21.67;8.10;;;;;;;;;;5081261;28;20052;-77
2023/12/01 12:58:41;;;;;;;23.05;8.57;;;;;;;;;;5105150;28;20101;-76
2023/12/01 13:01:10;;;;;;;22.17;8.77;;;;;;;;;;5110422;28;20047;-76
2023/12/01 13:03:37;;;;;;;24.55;8.73;;;;;;;;;;5102942;28;20047;-76
2023/12/01 13:06:05;;;;;;;23.83;9.02;;;;;;;;;;5102010;28;20406;-76
2023/12/01 13:08:33;;;;;;;24.75;9.20;;;;;;;;;;5102730;28;20130;-76
2023/12/01 13:11:00;;;;;;;28.02;9.40;;;;;;;;;;5105168;28;20151;-76
2023/12/01 13:13:28;;;;;;;24.80;9.52;;;;;;;;;;5102391;28;20557;-77
2023/12/01 13:15:57;;;;;;;22.15;8.25;;;;;;;;;;5107413;28;20452;-75
2023/12/01 13:18:25;;;;;;;20.88;8.63;;;;;;;;;;5107747;28;20403;-77
2023/12/01 13:20:52;;;;;;;22.23;8.50;;;;;;;;;;5102137;28;20048;-71
2023/12/01 13:23:20;;;;;;;22.92;8.98;;;;;;;;;;5104151;28;20047;-72
2023/12/01 13:25:47;;;;;;;22.83;8.68;;;;;;;;;;5104924;28;20056;-72
2023/12/01 13:28:14;;;;;;;23.13;8.57;;;;;;;;;;5103993;28;20089;-71
2023/12/01 13:30:42;;;;;;;21.80;8.85;;;;;;;;;;5107574;28;20056;-71
2023/12/01 13:33:11;;;;;;;24.60;9.10;;;;;;;;;;5106104;28;20394;-72
2023/12/01 13:35:38;;;;;;;23.00;8.50;;;;;;;;;;5098715;28;20246;-72
2023/12/01 13:38:07;;;;;;;22.70;8.60;;;;;;;;;;5105425;28;20043;-74
2023/12/01 13:40:34;;;;;;;22.95;8.98;;;;;;;;;;5077974;28;20131;-72
2023/12/01 13:43:02;;;;;;;20.83;8.55;;;;;;;;;;5105176;28;20066;-74
2023/12/01 13:45:29;;;;;;;24.50;8.98;;;;;;;;;;5102983;28;20051;-74
2023/12/01 13:47:57;;;;;;;23.08;8.43;;;;;;;;;;5104477;28;20084;-74
2023/12/01 13:50:25;;;;;;;25.55;9.18;;;;;;;;;;5102924;28;20509;-73
2023/12/01 13:52:53;;;;;;;21.60;9.45;;;;;;;;;;5100107;28;20047;-74
2023/12/01 13:55:21;;;;;;;23.98;8.85;;;;;;;;;;5101180;28;20185;-73
2023/12/01 13:57:50;;;;;;;20.73;8.93;;;;;;;;;;5100608;28;20482;-73
2023/12/01 14:00:18;;;;;;;23.52;9.38;;;;;;;;;;5105520;28;20055;-73
2023/12/01 14:02:46;;;;;;;22.85;8.27;;;;;;;;;;5089309;28;20040;-74
2023/12/01 14:05:14;;;;;;;24.17;9.55;;;;;;;;;;5097797;28;20066;-70
2023/12/01 14:07:42;;;;;;;20.08;8.50;;;;;;;;;;5106406;28;20043;-74
2023/12/01 14:10:12;;;;;;;20.77;8.70;;;;;;;;;;5105104;28;20056;-73
2023/12/01 14:12:39;;;;;;;26.25;10.98;;;;;;;;;;5099155;28;20104;-74
2023/12/01 14:15:07;;;;;;;30.60;11.63;;;;;;;;;;5094643;28;20150;-73
2023/12/01 14:17:34;;;;;;;24.33;9.05;;;;;;;;;;5095312;28;20044;-73
2023/12/01 14:20:02;;;;;;;22.90;8.40;;;;;;;;;;5078375;28;20464;-73
2023/12/01 14:22:30;;;;;;;19.98;8.00;;;;;;;;;;5101635;28;20051;-73
2023/12/01 14:24:58;;;;;;;26.10;9.68;;;;;;;;;;5077112;28;20050;-71
2023/12/01 14:27:26;;;;;;;22.52;8.27;;;;;;;;;;5074854;28;20044;-73
2023/12/01 14:29:53;;;;;;;21.70;9.02;;;;;;;;;;5105777;28;20406;-73
2023/12/01 14:32:21;;;;;;;28.33;10.30;;;;;;;;;;5098634;28;20518;-73